Zim Pacific — A8OZ4 — position and weather

sailwx.info

Track history (hours):
 
Tides and Currents Weather Stations Pressure Air Temp Water Temp Dewpoint Dewpoint Depression Visibility Wind Speed Wind Dir Waves Ship Positions

Zim Pacific

Last reported at 2015-Feb-22 21:32 UTC. Time now 2015-Mar-06 17:41 UTC.
Position N 05°53' E 002°23'.
Warning: this ship's position is 11 days out of date.

Length 254 m; draft 8.6 m.

Type: Ship. MMSI: 636016512.

Date/timePositionNaut miles runAvg speedWind from/ knotsBaromVisibWave heightAir tempDewpointWater temp
2015-Feb-22 21:32N 05°53' E 002°23'1212.2
2015-Feb-22 20:33N 05°57' E 002°35'1212.3
2015-Feb-22 19:33N 06°01' E 002°46'1212.4
2015-Feb-22 18:33N 06°05' E 002°58'1313.0
2015-Feb-22 17:33N 06°09' E 003°10'1515.1
2015-Feb-22 16:33N 06°16' E 003°24'10 7.1
2015-Feb-22 15:08N 06°26' E 003°21'1 1.4
2015-Feb-22 14:33N 06°26' E 003°21'1 0.7
2015-Feb-22 13:33N 06°26' E 003°21'0 0.0
2015-Feb-22 12:32N 06°26' E 003°21'0 0.0
2015-Feb-22 11:32N 06°26' E 003°21'0 0.0
2015-Feb-22 10:31N 06°26' E 003°21'0 0.0
2015-Feb-22 09:28N 06°26' E 003°21'0 0.0
2015-Feb-22 08:33N 06°26' E 003°21'0 0.0
2015-Feb-22 07:33N 06°26' E 003°21'0 0.0
2015-Feb-22 06:33N 06°26' E 003°21'0 0.0
2015-Feb-22 05:32N 06°26' E 003°21'0 0.0
2015-Feb-22 04:32N 06°26' E 003°21'0 0.0
2015-Feb-22 03:28N 06°26' E 003°21'0 0.0
2015-Feb-22 02:28N 06°26' E 003°21'0 0.0
2015-Feb-22 01:33N 06°26' E 003°21'0 0.0
2015-Feb-22 00:33N 06°26' E 003°21'0 0.0
2015-Feb-21 23:32N 06°26' E 003°21'0 0.0
2015-Feb-21 22:32N 06°26' E 003°21'0 0.0
2015-Feb-21 21:32N 06°26' E 003°21'0 0.0
2015-Feb-21 20:30N 06°26' E 003°21'0 0.0
2015-Feb-21 19:31N 06°26' E 003°21'0 0.0
2015-Feb-21 18:31N 06°26' E 003°21'0 0.0
2015-Feb-21 17:33N 06°26' E 003°21'0 0.0
2015-Feb-21 16:27N 06°26' E 003°21'0 0.0
2015-Feb-21 15:32N 06°26' E 003°21'0 0.0
2015-Feb-21 14:32N 06°26' E 003°21'0 0.0
2015-Feb-21 13:33N 06°26' E 003°21'0 0.0
2015-Feb-21 12:29N 06°26' E 003°21'0 0.0
2015-Feb-21 11:29N 06°26' E 003°21'0 0.0
2015-Feb-21 10:28N 06°26' E 003°21'0 0.0
2015-Feb-21 09:28N 06°26' E 003°21'0 0.0
2015-Feb-21 08:16N 06°26' E 003°21'0 0.5
2015-Feb-21 07:32N 06°26' E 003°22'3 2.8
2015-Feb-21 06:32N 06°24' E 003°24'3 3.4
2015-Feb-21 05:33N 06°21' E 003°25'3 3.1
2015-Feb-21 04:32N 06°20' E 003°28'0 0.2
2015-Feb-21 03:32N 06°19' E 003°28'0 0.0
2015-Feb-21 02:31N 06°19' E 003°28'0 0.0
2015-Feb-21 01:31N 06°19' E 003°28'0 0.0
2015-Feb-21 00:33N 06°19' E 003°28'0 0.0
2015-Feb-20 23:33N 06°19' E 003°28'0 0.0
2015-Feb-20 22:33N 06°19' E 003°28'0 0.0
2015-Feb-20 21:32N 06°19' E 003°28'0 0.0
2015-Feb-20 20:32N 06°19' E 003°28'0 0.0
2015-Feb-20 19:31N 06°19' E 003°28'0 0.0
2015-Feb-20 18:31N 06°19' E 003°28'0 0.0
2015-Feb-20 17:31N 06°19' E 003°28'0 0.0
2015-Feb-20 16:30N 06°19' E 003°28'0 0.0
2015-Feb-20 15:33N 06°19' E 003°28'0 0.0
2015-Feb-20 14:32N 06°19' E 003°28'0 0.0
2015-Feb-20 13:32N 06°19' E 003°28'0 0.0
2015-Feb-20 12:31N 06°19' E 003°28'0 0.0
2015-Feb-20 11:31N 06°19' E 003°28'0 0.0
2015-Feb-20 10:33N 06°19' E 003°28'0 0.1
2015-Feb-20 09:32N 06°19' E 003°28'6 6.1
2015-Feb-20 08:33N 06°24' E 003°24'2 2.4
2015-Feb-20 07:31N 06°26' E 003°23'0 0.0
2015-Feb-20 06:22N 06°26' E 003°23'0 0.0
2015-Feb-20 05:06N 06°26' E 003°23'0 0.0
2015-Feb-20 04:12N 06°26' E 003°23'0 0.0
2015-Feb-20 03:29N 06°26' E 003°23'0 0.0
2015-Feb-20 02:29N 06°26' E 003°23'0 0.0
2015-Feb-20 00:25N 06°26' E 003°23'0 0.0
2015-Feb-19 23:22N 06°26' E 003°23'0 0.0
2015-Feb-19 22:06N 06°26' E 003°23'0 0.0
2015-Feb-19 21:09N 06°26' E 003°23'0 0.0
2015-Feb-19 20:29N 06°26' E 003°23'0 0.0
2015-Feb-19 19:23N 06°26' E 003°23'0 0.0
2015-Feb-19 18:32N 06°26' E 003°23'0 0.0
2015-Feb-19 17:25N 06°26' E 003°23'0 0.0
2015-Feb-19 16:28N 06°26' E 003°23'0 0.0
2015-Feb-19 15:33N 06°26' E 003°23'0 0.0
2015-Feb-19 14:30N 06°26' E 003°23'0 0.0
2015-Feb-19 13:26N 06°26' E 003°23'0 0.0
2015-Feb-19 12:29N 06°26' E 003°23'0 0.0
2015-Feb-19 11:32N 06°26' E 003°23'0 0.0
2015-Feb-19 10:22N 06°26' E 003°23'0 0.0
2015-Feb-19 09:10N 06°26' E 003°23'0 0.0
2015-Feb-19 08:30N 06°26' E 003°23'0 0.0
2015-Feb-19 07:24N 06°26' E 003°23'0 0.0
2015-Feb-19 06:29N 06°26' E 003°23'0 0.0
2015-Feb-19 05:23N 06°26' E 003°23'0 0.0
2015-Feb-19 04:20N 06°26' E 003°23'1 0.8
2015-Feb-19 03:32N 06°26' E 003°24'6 5.8
2015-Feb-19 02:33N 06°21' E 003°26'4 4.0
2015-Feb-19 01:33N 06°17' E 003°28'1 0.6
2015-Feb-19 00:31N 06°17' E 003°28'4 4.7
2015-Feb-18 23:33N 06°21' E 003°25'0 0.4
2015-Feb-18 22:33N 06°21' E 003°26'4 3.5
2015-Feb-18 21:33N 06°17' E 003°27'2 1.8
2015-Feb-18 20:32N 06°16' E 003°27'1 1.4
2015-Feb-18 19:33N 06°17' E 003°28'0 0.3
2015-Feb-18 18:32N 06°17' E 003°28'0 0.4
2015-Feb-18 17:33N 06°17' E 003°28'1 0.5
2015-Feb-18 16:32N 06°18' E 003°28'0 0.3
2015-Feb-18 15:31N 06°17' E 003°27'0 0.3
2015-Feb-18 14:32N 06°17' E 003°28'1 0.8
2015-Feb-18 13:33N 06°17' E 003°28'0 0.1
2015-Feb-18 12:34N 06°17' E 003°28'0 0.5
2015-Feb-18 11:32N 06°16' E 003°28'1 1.0
2015-Feb-18 10:32N 06°16' E 003°27'1 1.4
2015-Feb-18 09:33N 06°14' E 003°27'1511.9
2015-Feb-18 08:18N 06°00' E 003°32'  
Track history (hours):
 
Tides and Currents Weather Stations Pressure Air Temp Water Temp Dewpoint Dewpoint Depression Visibility Wind Speed Wind Dir Waves Ship Positions

Zim Pacific

Last reported at 2015-Feb-22 21:32 UTC. Time now 2015-Mar-06 17:41 UTC.
Position N 05°53' E 002°23'.
Warning: this ship's position is 11 days out of date.

Length 254 m; draft 8.6 m.

Type: Ship. MMSI: 636016512.

Date/timePositionNaut miles runAvg speedWind from/ knotsBaromVisibWave heightAir tempDewpointWater temp
2015-Feb-22 21:32N 05°53' E 002°23'1212.2
2015-Feb-22 20:33N 05°57' E 002°35'1212.3
2015-Feb-22 19:33N 06°01' E 002°46'1212.4
2015-Feb-22 18:33N 06°05' E 002°58'1313.0
2015-Feb-22 17:33N 06°09' E 003°10'1515.1
2015-Feb-22 16:33N 06°16' E 003°24'10 7.1
2015-Feb-22 15:08N 06°26' E 003°21'1 1.4
2015-Feb-22 14:33N 06°26' E 003°21'1 0.7
2015-Feb-22 13:33N 06°26' E 003°21'0 0.0
2015-Feb-22 12:32N 06°26' E 003°21'0 0.0
2015-Feb-22 11:32N 06°26' E 003°21'0 0.0
2015-Feb-22 10:31N 06°26' E 003°21'0 0.0
2015-Feb-22 09:28N 06°26' E 003°21'0 0.0
2015-Feb-22 08:33N 06°26' E 003°21'0 0.0
2015-Feb-22 07:33N 06°26' E 003°21'0 0.0
2015-Feb-22 06:33N 06°26' E 003°21'0 0.0
2015-Feb-22 05:32N 06°26' E 003°21'0 0.0
2015-Feb-22 04:32N 06°26' E 003°21'0 0.0
2015-Feb-22 03:28N 06°26' E 003°21'0 0.0
2015-Feb-22 02:28N 06°26' E 003°21'0 0.0
2015-Feb-22 01:33N 06°26' E 003°21'0 0.0
2015-Feb-22 00:33N 06°26' E 003°21'0 0.0
2015-Feb-21 23:32N 06°26' E 003°21'0 0.0
2015-Feb-21 22:32N 06°26' E 003°21'0 0.0
2015-Feb-21 21:32N 06°26' E 003°21'0 0.0
2015-Feb-21 20:30N 06°26' E 003°21'0 0.0
2015-Feb-21 19:31N 06°26' E 003°21'0 0.0
2015-Feb-21 18:31N 06°26' E 003°21'0 0.0
2015-Feb-21 17:33N 06°26' E 003°21'0 0.0
2015-Feb-21 16:27N 06°26' E 003°21'0 0.0
2015-Feb-21 15:32N 06°26' E 003°21'0 0.0
2015-Feb-21 14:32N 06°26' E 003°21'0 0.0
2015-Feb-21 13:33N 06°26' E 003°21'0 0.0
2015-Feb-21 12:29N 06°26' E 003°21'0 0.0
2015-Feb-21 11:29N 06°26' E 003°21'0 0.0
2015-Feb-21 10:28N 06°26' E 003°21'0 0.0
2015-Feb-21 09:28N 06°26' E 003°21'0 0.0
2015-Feb-21 08:16N 06°26' E 003°21'0 0.5
2015-Feb-21 07:32N 06°26' E 003°22'3 2.8
2015-Feb-21 06:32N 06°24' E 003°24'3 3.4
2015-Feb-21 05:33N 06°21' E 003°25'3 3.1
2015-Feb-21 04:32N 06°20' E 003°28'0 0.2
2015-Feb-21 03:32N 06°19' E 003°28'0 0.0
2015-Feb-21 02:31N 06°19' E 003°28'0 0.0
2015-Feb-21 01:31N 06°19' E 003°28'0 0.0
2015-Feb-21 00:33N 06°19' E 003°28'0 0.0
2015-Feb-20 23:33N 06°19' E 003°28'0 0.0
2015-Feb-20 22:33N 06°19' E 003°28'0 0.0
2015-Feb-20 21:32N 06°19' E 003°28'0 0.0
2015-Feb-20 20:32N 06°19' E 003°28'0 0.0
2015-Feb-20 19:31N 06°19' E 003°28'0 0.0
2015-Feb-20 18:31N 06°19' E 003°28'0 0.0
2015-Feb-20 17:31N 06°19' E 003°28'0 0.0
2015-Feb-20 16:30N 06°19' E 003°28'0 0.0
2015-Feb-20 15:33N 06°19' E 003°28'0 0.0
2015-Feb-20 14:32N 06°19' E 003°28'0 0.0
2015-Feb-20 13:32N 06°19' E 003°28'0 0.0
2015-Feb-20 12:31N 06°19' E 003°28'0 0.0
2015-Feb-20 11:31N 06°19' E 003°28'0 0.0
2015-Feb-20 10:33N 06°19' E 003°28'0 0.1
2015-Feb-20 09:32N 06°19' E 003°28'6 6.1
2015-Feb-20 08:33N 06°24' E 003°24'2 2.4
2015-Feb-20 07:31N 06°26' E 003°23'0 0.0
2015-Feb-20 06:22N 06°26' E 003°23'0 0.0
2015-Feb-20 05:06N 06°26' E 003°23'0 0.0
2015-Feb-20 04:12N 06°26' E 003°23'0 0.0
2015-Feb-20 03:29N 06°26' E 003°23'0 0.0
2015-Feb-20 02:29N 06°26' E 003°23'0 0.0
2015-Feb-20 00:25N 06°26' E 003°23'0 0.0
2015-Feb-19 23:22N 06°26' E 003°23'0 0.0
2015-Feb-19 22:06N 06°26' E 003°23'0 0.0
2015-Feb-19 21:09N 06°26' E 003°23'0 0.0
2015-Feb-19 20:29N 06°26' E 003°23'0 0.0
2015-Feb-19 19:23N 06°26' E 003°23'0 0.0
2015-Feb-19 18:32N 06°26' E 003°23'0 0.0
2015-Feb-19 17:25N 06°26' E 003°23'0 0.0
2015-Feb-19 16:28N 06°26' E 003°23'0 0.0
2015-Feb-19 15:33N 06°26' E 003°23'0 0.0
2015-Feb-19 14:30N 06°26' E 003°23'0 0.0
2015-Feb-19 13:26N 06°26' E 003°23'0 0.0
2015-Feb-19 12:29N 06°26' E 003°23'0 0.0
2015-Feb-19 11:32N 06°26' E 003°23'0 0.0
2015-Feb-19 10:22N 06°26' E 003°23'0 0.0
2015-Feb-19 09:10N 06°26' E 003°23'0 0.0
2015-Feb-19 08:30N 06°26' E 003°23'0 0.0
2015-Feb-19 07:24N 06°26' E 003°23'0 0.0
2015-Feb-19 06:29N 06°26' E 003°23'0 0.0
2015-Feb-19 05:23N 06°26' E 003°23'0 0.0
2015-Feb-19 04:20N 06°26' E 003°23'1 0.8
2015-Feb-19 03:32N 06°26' E 003°24'6 5.8
2015-Feb-19 02:33N 06°21' E 003°26'4 4.0
2015-Feb-19 01:33N 06°17' E 003°28'1 0.6
2015-Feb-19 00:31N 06°17' E 003°28'4 4.7
2015-Feb-18 23:33N 06°21' E 003°25'0 0.4
2015-Feb-18 22:33N 06°21' E 003°26'4 3.5
2015-Feb-18 21:33N 06°17' E 003°27'2 1.8
2015-Feb-18 20:32N 06°16' E 003°27'1 1.4
2015-Feb-18 19:33N 06°17' E 003°28'0 0.3
2015-Feb-18 18:32N 06°17' E 003°28'0 0.4
2015-Feb-18 17:33N 06°17' E 003°28'1 0.5
2015-Feb-18 16:32N 06°18' E 003°28'0 0.3
2015-Feb-18 15:31N 06°17' E 003°27'0 0.3
2015-Feb-18 14:32N 06°17' E 003°28'1 0.8
2015-Feb-18 13:33N 06°17' E 003°28'0 0.1
2015-Feb-18 12:34N 06°17' E 003°28'0 0.5
2015-Feb-18 11:32N 06°16' E 003°28'1 1.0
2015-Feb-18 10:32N 06°16' E 003°27'1 1.4
2015-Feb-18 09:33N 06°14' E 003°27'1511.9
2015-Feb-18 08:18N 06°00' E 003°32'  

Dump ship's entire track history